createdAt,value
2018-02-11T00:00:02.760Z,4.10
2018-02-11T00:01:02.757Z,3.90
2018-02-11T00:02:56.378Z,4.10
2018-02-11T00:03:56.385Z,4.30
2018-02-11T00:05:50.013Z,4.30
2018-02-11T00:06:50.008Z,4.20
2018-02-11T00:08:43.625Z,4.40
2018-02-11T00:09:43.635Z,3.80
2018-02-11T00:11:37.247Z,4.00
2018-02-11T00:12:37.256Z,4.00
2018-02-11T00:14:30.884Z,4.20
2018-02-11T00:15:30.882Z,4.50
2018-02-11T00:17:24.500Z,4.00
2018-02-11T00:18:24.509Z,4.00
2018-02-11T00:20:18.135Z,4.40
2018-02-11T00:21:18.137Z,3.90
2018-02-11T00:23:11.750Z,4.20
2018-02-11T00:24:11.759Z,4.10
2018-02-11T00:26:05.420Z,4.20
2018-02-11T00:27:05.386Z,4.10
2018-02-11T00:28:59.011Z,3.70
2018-02-11T00:29:59.019Z,4.30
2018-02-11T00:31:52.658Z,4.10
2018-02-11T00:32:52.655Z,4.00
2018-02-11T00:34:46.270Z,4.30
2018-02-11T00:35:46.281Z,3.90
2018-02-11T00:37:39.908Z,4.00
2018-02-11T00:38:39.916Z,4.00
2018-02-11T00:40:33.545Z,4.00
2018-02-11T00:41:33.543Z,3.60
2018-02-11T00:43:27.170Z,3.80
2018-02-11T00:44:27.170Z,3.90
2018-02-11T00:46:20.800Z,4.00
2018-02-11T00:47:20.795Z,4.00
2018-02-11T00:49:14.411Z,3.80
2018-02-11T00:50:14.420Z,3.70
2018-02-11T00:52:08.044Z,3.70
2018-02-11T00:53:08.044Z,4.20
2018-02-11T00:55:01.661Z,3.90
2018-02-11T00:56:01.668Z,3.60
2018-02-11T00:57:55.295Z,3.80
2018-02-11T00:58:55.305Z,3.80
2018-02-11T01:00:49.002Z,3.60
2018-02-11T01:01:48.999Z,3.60
2018-02-11T01:03:42.616Z,3.50
2018-02-11T01:04:42.626Z,3.70
2018-02-11T01:06:36.250Z,3.80
2018-02-11T01:07:36.248Z,3.40
2018-02-11T01:09:29.862Z,3.80
2018-02-11T01:10:29.872Z,3.70
2018-02-11T01:12:23.500Z,3.50
2018-02-11T01:13:23.497Z,3.50
2018-02-11T01:15:17.113Z,3.80
2018-02-11T01:16:17.122Z,3.60
2018-02-11T01:18:10.754Z,3.50
2018-02-11T01:19:10.749Z,3.90
2018-02-11T01:21:04.367Z,3.30
2018-02-11T01:22:04.370Z,3.60
2018-02-11T01:23:57.988Z,3.50
2018-02-11T01:24:57.995Z,3.50
2018-02-11T01:26:51.647Z,3.90
2018-02-11T01:27:51.631Z,3.70
2018-02-11T01:29:45.279Z,3.40
2018-02-11T01:30:45.255Z,3.30
2018-02-11T01:32:38.904Z,3.60
2018-02-11T01:33:38.890Z,3.60
2018-02-11T01:35:32.521Z,3.60
2018-02-11T01:36:32.529Z,3.30
2018-02-11T01:38:26.202Z,3.30
2018-02-11T01:39:26.155Z,4.30
2018-02-11T01:41:19.780Z,3.40
2018-02-11T01:42:19.789Z,3.40
2018-02-11T01:44:13.406Z,3.20
2018-02-11T01:45:13.416Z,3.60
2018-02-11T01:47:07.042Z,3.70
2018-02-11T01:48:07.043Z,3.60
2018-02-11T01:50:00.656Z,3.40
2018-02-11T01:51:00.666Z,3.50
2018-02-11T01:52:54.304Z,3.20
2018-02-11T01:53:54.300Z,3.00
2018-02-11T01:55:47.953Z,3.20
2018-02-11T01:56:47.936Z,2.90
2018-02-11T01:58:41.571Z,3.20
2018-02-11T01:59:41.578Z,3.30
2018-02-11T02:01:35.186Z,3.50
2018-02-11T02:02:35.195Z,3.20
2018-02-11T02:04:28.819Z,3.10
2018-02-11T02:05:28.820Z,3.00
2018-02-11T02:07:22.467Z,2.90
2018-02-11T02:08:22.446Z,3.40
2018-02-11T02:10:16.061Z,3.00
2018-02-11T02:11:16.069Z,3.10
2018-02-11T02:13:09.694Z,3.30
2018-02-11T02:14:09.694Z,3.00
2018-02-11T02:16:03.310Z,3.30
2018-02-11T02:17:03.318Z,3.10
2018-02-11T02:18:56.999Z,3.10
2018-02-11T02:19:56.999Z,2.90
2018-02-11T02:21:50.615Z,3.10
2018-02-11T02:22:50.623Z,3.00
2018-02-11T02:24:44.249Z,2.70
2018-02-11T02:25:44.248Z,2.90
2018-02-11T02:27:37.864Z,3.10
2018-02-11T02:28:37.873Z,2.70
2018-02-11T02:30:31.512Z,2.90
2018-02-11T02:31:31.507Z,2.90
2018-02-11T02:33:25.158Z,3.00
2018-02-11T02:34:25.143Z,2.80
2018-02-11T02:36:18.768Z,3.00
2018-02-11T02:37:18.777Z,2.90
2018-02-11T02:39:12.413Z,2.70
2018-02-11T02:40:12.416Z,2.90
2018-02-11T02:42:06.027Z,2.90
2018-02-11T02:43:06.037Z,3.00
2018-02-11T02:44:59.673Z,2.80
2018-02-11T02:45:59.674Z,2.70
2018-02-11T02:47:53.290Z,2.60
2018-02-11T02:48:53.298Z,2.90
2018-02-11T02:50:46.928Z,2.60
2018-02-11T02:51:46.924Z,2.80
2018-02-11T02:53:41.543Z,2.80
2018-02-11T02:54:41.550Z,3.00
2018-02-11T02:56:35.166Z,2.80
2018-02-11T02:57:35.174Z,2.60
2018-02-11T02:59:28.810Z,2.70
2018-02-11T03:00:28.807Z,2.80
2018-02-11T03:02:22.440Z,2.50
2018-02-11T03:03:22.447Z,2.30
2018-02-11T03:05:16.072Z,2.70
2018-02-11T03:06:16.074Z,2.50
2018-02-11T03:08:09.688Z,2.80
2018-02-11T03:09:09.698Z,2.70
2018-02-11T03:11:03.332Z,2.70
2018-02-11T03:12:03.331Z,2.40
2018-02-11T03:13:56.958Z,2.70
2018-02-11T03:14:56.967Z,2.30
2018-02-11T03:16:50.596Z,2.50
2018-02-11T03:17:50.602Z,2.50
2018-02-11T03:19:44.239Z,2.30
2018-02-11T03:20:44.237Z,2.50
2018-02-11T03:22:37.852Z,2.50
2018-02-11T03:23:37.861Z,2.10
2018-02-11T03:25:31.488Z,2.70
2018-02-11T03:26:31.485Z,2.30
2018-02-11T03:28:25.103Z,2.60
2018-02-11T03:29:25.111Z,2.40
2018-02-11T03:31:18.741Z,2.60
2018-02-11T03:32:18.735Z,2.40
2018-02-11T03:34:12.351Z,2.40
2018-02-11T03:35:12.360Z,2.40
2018-02-11T03:37:05.976Z,2.40
2018-02-11T03:38:05.989Z,2.50
2018-02-11T03:39:59.616Z,2.30
2018-02-11T03:40:59.611Z,2.30
2018-02-11T03:42:53.238Z,2.40
2018-02-11T03:43:53.246Z,2.40
2018-02-11T03:45:46.872Z,2.40
2018-02-11T03:46:46.869Z,2.40
2018-02-11T03:50:13.486Z,2.20
2018-02-11T03:51:13.486Z,2.30
2018-02-11T03:53:07.098Z,2.30
2018-02-11T03:54:07.109Z,2.10
2018-02-11T03:56:00.725Z,2.10
2018-02-11T03:57:00.733Z,2.10
2018-02-11T03:58:54.348Z,2.00
2018-02-11T03:59:54.358Z,1.90
2018-02-11T04:01:47.975Z,2.10
2018-02-11T04:02:47.982Z,2.20
2018-02-11T04:04:41.630Z,2.00
2018-02-11T04:05:41.631Z,2.10
2018-02-11T04:07:35.246Z,2.00
2018-02-11T04:08:35.308Z,1.80
2018-02-11T04:10:28.878Z,2.10
2018-02-11T04:11:28.878Z,2.00
2018-02-11T04:13:22.533Z,2.00
2018-02-11T04:14:22.541Z,2.30
2018-02-11T04:16:16.156Z,2.00
2018-02-11T04:17:16.164Z,2.10
2018-02-11T04:19:09.778Z,2.50
2018-02-11T04:20:09.788Z,2.10
2018-02-11T04:22:03.414Z,1.90
2018-02-11T04:23:03.423Z,1.80
2018-02-11T04:24:57.059Z,1.90
2018-02-11T04:25:57.059Z,1.90
2018-02-11T04:27:50.678Z,2.00
2018-02-11T04:28:50.685Z,1.90
2018-02-11T04:30:44.320Z,2.00
2018-02-11T04:31:44.318Z,1.80
2018-02-11T04:33:37.933Z,1.90
2018-02-11T04:34:37.941Z,2.10
2018-02-11T04:36:31.559Z,1.90
2018-02-11T04:37:31.566Z,1.80
2018-02-11T04:39:25.185Z,1.90
2018-02-11T04:40:25.192Z,1.90
2018-02-11T04:42:18.810Z,1.70
2018-02-11T04:43:18.817Z,1.80
2018-02-11T04:45:12.452Z,2.10
2018-02-11T04:46:12.453Z,2.20
2018-02-11T04:48:06.080Z,1.90
2018-02-11T04:49:06.086Z,1.90
2018-02-11T04:50:59.712Z,1.70
2018-02-11T04:51:59.719Z,1.80
2018-02-11T04:53:53.336Z,1.80
2018-02-11T04:54:53.344Z,1.70
2018-02-11T04:56:46.989Z,1.80
2018-02-11T04:57:46.996Z,1.60
2018-02-11T04:59:40.622Z,1.90
2018-02-11T05:00:40.621Z,1.80
2018-02-11T05:02:34.257Z,1.70
2018-02-11T05:03:34.254Z,1.90
2018-02-11T05:05:27.891Z,1.70
2018-02-11T05:06:27.890Z,1.70
2018-02-11T05:08:21.506Z,1.70
2018-02-11T05:09:21.556Z,1.90
2018-02-11T05:11:15.141Z,1.80
2018-02-11T05:12:15.149Z,1.60
2018-02-11T05:14:08.771Z,1.60
2018-02-11T05:15:08.776Z,1.70
2018-02-11T05:17:02.395Z,1.90
2018-02-11T05:18:02.403Z,1.90
2018-02-11T05:19:56.030Z,1.70
2018-02-11T05:20:56.026Z,1.80
2018-02-11T05:22:49.644Z,1.70
2018-02-11T05:23:49.658Z,1.70
2018-02-11T05:25:43.291Z,1.70
2018-02-11T05:26:43.290Z,1.70
2018-02-11T05:28:36.905Z,1.70
2018-02-11T05:29:36.919Z,1.60
2018-02-11T05:31:30.532Z,1.60
2018-02-11T05:32:30.540Z,1.80
2018-02-11T05:34:24.155Z,1.80
2018-02-11T05:35:24.163Z,1.70
2018-02-11T05:37:17.782Z,1.80
2018-02-11T05:38:17.790Z,1.90
2018-02-11T05:40:11.419Z,1.50
2018-02-11T05:41:11.414Z,1.60
2018-02-11T05:43:05.039Z,1.70
2018-02-11T05:44:05.050Z,1.70
2018-02-11T05:45:58.685Z,1.80
2018-02-11T05:46:58.684Z,1.60
2018-02-11T05:48:52.312Z,1.60
2018-02-11T05:49:52.308Z,1.70
2018-02-11T05:51:45.934Z,1.50
2018-02-11T05:52:45.942Z,1.50
2018-02-11T05:54:39.560Z,1.50
2018-02-11T05:55:39.567Z,1.60
2018-02-11T05:57:33.202Z,1.60
2018-02-11T05:58:33.207Z,1.60
2018-02-11T06:00:26.844Z,1.60
2018-02-11T06:01:26.840Z,2.30
2018-02-11T06:03:20.455Z,1.60
2018-02-11T06:04:20.465Z,1.70
2018-02-11T06:06:14.100Z,1.50
2018-02-11T06:07:14.099Z,1.60
2018-02-11T06:09:07.715Z,1.50
2018-02-11T06:10:07.722Z,1.50
2018-02-11T06:12:01.342Z,1.70
2018-02-11T06:13:01.347Z,1.60
2018-02-11T06:14:54.989Z,1.60
2018-02-11T06:15:54.998Z,1.40
2018-02-11T06:17:48.613Z,1.70
2018-02-11T06:18:48.623Z,1.60
2018-02-11T06:20:42.249Z,1.40
2018-02-11T06:21:42.249Z,1.50
2018-02-11T06:23:35.865Z,1.30
2018-02-11T06:24:35.871Z,1.40
2018-02-11T06:26:29.487Z,1.70
2018-02-11T06:27:29.497Z,1.50
2018-02-11T06:29:23.174Z,1.60
2018-02-11T06:30:23.131Z,1.50
2018-02-11T06:32:16.758Z,1.40
2018-02-11T06:33:16.765Z,1.50
2018-02-11T06:35:10.412Z,1.50
2018-02-11T06:36:10.411Z,1.50
2018-02-11T06:38:04.035Z,1.20
2018-02-11T06:39:04.042Z,1.50
2018-02-11T06:40:57.671Z,1.40
2018-02-11T06:41:57.668Z,1.50
2018-02-11T06:43:51.281Z,1.50
2018-02-11T06:44:51.292Z,1.50
2018-02-11T06:46:44.992Z,1.30
2018-02-11T06:47:44.999Z,1.60
2018-02-11T06:49:38.615Z,1.50
2018-02-11T06:50:38.622Z,1.40
2018-02-11T06:52:32.239Z,1.60
2018-02-11T06:53:32.250Z,1.60
2018-02-11T06:55:25.876Z,1.80
2018-02-11T06:56:25.875Z,1.40
2018-02-11T06:58:19.494Z,1.30
2018-02-11T06:59:19.498Z,1.20
2018-02-11T07:01:13.134Z,1.30
2018-02-11T07:02:13.132Z,1.30
2018-02-11T07:04:06.746Z,1.50
2018-02-11T07:05:06.776Z,1.20
2018-02-11T07:07:00.381Z,1.40
2018-02-11T07:08:00.391Z,1.30
2018-02-11T07:09:54.007Z,1.40
2018-02-11T07:10:54.016Z,1.50
2018-02-11T07:12:47.634Z,1.40
2018-02-11T07:13:47.642Z,1.40
2018-02-11T07:15:41.267Z,1.30
2018-02-11T07:16:41.263Z,1.40
2018-02-11T07:18:34.880Z,1.30
2018-02-11T07:19:34.891Z,1.40
2018-02-11T07:21:28.516Z,1.20
2018-02-11T07:22:28.513Z,1.20
2018-02-11T07:24:22.141Z,1.30
2018-02-11T07:25:22.149Z,1.20
2018-02-11T07:27:15.791Z,1.40
2018-02-11T07:28:15.773Z,1.30
2018-02-11T07:30:09.392Z,1.30
2018-02-11T07:31:09.398Z,1.20
2018-02-11T07:33:03.028Z,1.40
2018-02-11T07:34:03.033Z,1.40
2018-02-11T07:35:56.660Z,1.20
2018-02-11T07:36:56.658Z,1.30
2018-02-11T07:38:50.278Z,1.10
2018-02-11T07:39:50.285Z,1.10
2018-02-11T07:41:43.912Z,1.50
2018-02-11T07:42:43.910Z,1.20
2018-02-11T07:44:37.526Z,1.10
2018-02-11T07:45:37.557Z,1.30
2018-02-11T07:47:31.158Z,1.30
2018-02-11T07:48:31.162Z,1.10
2018-02-11T07:50:24.798Z,1.10
2018-02-11T07:51:24.796Z,1.30
2018-02-11T07:53:18.412Z,1.30
2018-02-11T07:54:18.421Z,1.20
2018-02-11T07:56:12.053Z,1.30
2018-02-11T07:57:12.051Z,1.20
2018-02-11T07:59:05.679Z,1.30
2018-02-11T08:00:05.686Z,1.30
2018-02-11T08:01:59.305Z,1.10
2018-02-11T08:02:59.315Z,1.40
2018-02-11T08:04:52.991Z,1.20
2018-02-11T08:05:52.998Z,1.20
2018-02-11T08:07:46.621Z,1.30
2018-02-11T08:08:46.632Z,1.20
2018-02-11T08:10:40.262Z,1.30
2018-02-11T08:11:40.260Z,1.10
2018-02-11T08:13:33.883Z,1.20
2018-02-11T08:14:33.889Z,1.20
2018-02-11T08:16:27.533Z,1.20
2018-02-11T08:17:27.532Z,1.10
2018-02-11T08:19:21.146Z,1.20
2018-02-11T08:20:21.153Z,1.20
2018-02-11T08:22:14.767Z,1.30
2018-02-11T08:23:14.776Z,1.30
2018-02-11T08:25:08.390Z,1.30
2018-02-11T08:26:08.398Z,1.50
2018-02-11T08:28:02.013Z,2.10
2018-02-11T08:29:02.023Z,1.70
2018-02-11T08:30:55.645Z,2.10
2018-02-11T08:31:55.644Z,2.40
2018-02-11T08:33:49.266Z,2.00
2018-02-11T08:34:49.276Z,2.40
2018-02-11T08:36:42.902Z,3.00
2018-02-11T08:37:42.899Z,3.10
2018-02-11T08:39:36.042Z,2.00
2018-02-11T08:40:36.050Z,2.30
2018-02-11T08:42:29.685Z,2.50
2018-02-11T08:43:29.692Z,2.20
2018-02-11T08:45:23.316Z,2.60
2018-02-11T08:46:23.325Z,3.40
2018-02-11T08:48:16.940Z,4.10
2018-02-11T08:49:16.949Z,3.60
2018-02-11T08:51:10.572Z,3.90
2018-02-11T08:52:10.571Z,4.30
2018-02-11T08:54:04.184Z,2.80
2018-02-11T08:55:04.203Z,3.30
2018-02-11T08:56:57.821Z,3.00
2018-02-11T08:57:57.817Z,3.40
2018-02-11T08:59:51.440Z,4.90
2018-02-11T09:00:51.466Z,4.10
2018-02-11T09:02:45.066Z,2.90
2018-02-11T09:03:45.075Z,3.00
2018-02-11T09:05:38.713Z,3.10
2018-02-11T09:06:38.719Z,2.80
2018-02-11T09:08:32.316Z,3.70
2018-02-11T09:09:32.326Z,3.60
2018-02-11T09:11:25.952Z,2.80
2018-02-11T09:12:25.954Z,2.60
2018-02-11T09:14:19.568Z,3.30
2018-02-11T09:15:19.575Z,2.50
2018-02-11T09:17:13.204Z,3.90
2018-02-11T09:18:13.203Z,3.20
2018-02-11T09:20:06.819Z,4.00
2018-02-11T09:21:06.828Z,3.80
2018-02-11T09:23:00.445Z,4.60
2018-02-11T09:24:00.456Z,3.70
2018-02-11T09:25:54.088Z,4.90
2018-02-11T09:26:54.090Z,4.20
2018-02-11T09:28:47.708Z,4.90
2018-02-11T09:29:47.713Z,3.20
2018-02-11T09:31:41.342Z,4.30
2018-02-11T09:32:41.369Z,4.00
2018-02-11T09:34:34.990Z,3.90
2018-02-11T09:35:34.996Z,4.30
2018-02-11T09:37:28.615Z,4.40
2018-02-11T09:38:28.624Z,4.50
2018-02-11T09:40:22.239Z,5.10
2018-02-11T09:41:22.252Z,4.90
2018-02-11T09:43:15.864Z,5.40
2018-02-11T09:44:15.872Z,5.40
2018-02-11T09:46:09.508Z,4.80
2018-02-11T09:47:09.508Z,4.30
2018-02-11T09:49:03.137Z,6.50
2018-02-11T09:50:03.169Z,5.30
2018-02-11T09:51:56.785Z,5.50
2018-02-11T09:52:56.782Z,6.30
2018-02-11T09:54:50.399Z,7.20
2018-02-11T09:55:50.409Z,5.50
2018-02-11T09:57:44.035Z,5.60
2018-02-11T09:58:44.044Z,7.20
2018-02-11T10:00:37.669Z,5.60
2018-02-11T10:01:37.684Z,6.30
2018-02-11T10:03:31.294Z,6.10
2018-02-11T10:04:31.302Z,6.90
2018-02-11T10:06:24.999Z,7.90
2018-02-11T10:07:24.997Z,7.60
2018-02-11T10:09:18.646Z,6.80
2018-02-11T10:10:18.651Z,6.00
2018-02-11T10:12:12.279Z,8.10
2018-02-11T10:13:12.277Z,5.90
2018-02-11T10:15:05.893Z,8.70
2018-02-11T10:16:05.903Z,7.60
2018-02-11T10:17:59.527Z,5.60
2018-02-11T10:18:59.534Z,5.90
2018-02-11T10:20:53.161Z,5.70
2018-02-11T10:21:53.172Z,6.40
2018-02-11T10:23:46.790Z,6.60
2018-02-11T10:24:46.796Z,6.40
2018-02-11T10:26:40.431Z,6.20
2018-02-11T10:27:40.428Z,5.80
2018-02-11T10:29:34.078Z,7.50
2018-02-11T10:30:34.075Z,6.90
2018-02-11T10:32:27.711Z,7.00
2018-02-11T10:33:27.710Z,6.70
2018-02-11T10:35:21.340Z,7.30
2018-02-11T10:36:21.332Z,6.90
2018-02-11T10:38:14.991Z,6.70
2018-02-11T10:39:15.000Z,6.70
2018-02-11T10:41:08.625Z,7.90
2018-02-11T10:42:08.623Z,7.00
2018-02-11T10:44:02.240Z,5.20
2018-02-11T10:45:02.251Z,7.20
2018-02-11T10:46:55.874Z,6.80
2018-02-11T10:47:55.870Z,8.30
2018-02-11T10:49:49.495Z,9.00
2018-02-11T10:50:49.503Z,5.60
2018-02-11T10:52:43.127Z,8.20
2018-02-11T10:53:43.126Z,6.00
2018-02-11T10:55:36.750Z,6.50
2018-02-11T10:56:36.758Z,7.20
2018-02-11T10:58:30.381Z,8.20
2018-02-11T10:59:30.393Z,6.90
2018-02-11T11:01:24.062Z,6.40
2018-02-11T11:02:24.015Z,6.80
2018-02-11T11:04:17.640Z,7.60
2018-02-11T11:05:17.648Z,10.40
2018-02-11T11:07:11.273Z,6.80
2018-02-11T11:08:11.272Z,7.60
2018-02-11T11:10:04.887Z,11.30
2018-02-11T11:11:04.895Z,6.10
2018-02-11T11:12:58.519Z,6.30
2018-02-11T11:13:58.527Z,6.10
2018-02-11T11:15:52.141Z,4.70
2018-02-11T11:16:52.151Z,5.20
2018-02-11T11:18:45.765Z,6.30
2018-02-11T11:19:45.775Z,6.40
2018-02-11T11:21:39.405Z,4.20
2018-02-11T11:22:39.404Z,8.20
2018-02-11T11:24:33.021Z,6.50
2018-02-11T11:25:33.030Z,4.60
2018-02-11T11:27:26.653Z,6.20
2018-02-11T11:28:26.652Z,5.70
2018-02-11T11:30:20.264Z,7.80
2018-02-11T11:31:20.274Z,5.50
2018-02-11T11:33:13.889Z,5.30
2018-02-11T11:34:13.896Z,4.40
2018-02-11T11:36:07.521Z,5.90
2018-02-11T11:37:07.528Z,6.80
2018-02-11T11:39:01.144Z,5.70
2018-02-11T11:40:01.151Z,4.50
2018-02-11T11:41:54.774Z,4.50
2018-02-11T11:42:54.772Z,3.70
2018-02-11T11:44:48.397Z,4.30
2018-02-11T11:45:48.404Z,4.00
2018-02-11T11:47:42.031Z,4.50
2018-02-11T11:48:42.028Z,5.10
2018-02-11T11:50:35.655Z,5.30
2018-02-11T11:51:35.664Z,5.50
2018-02-11T11:53:29.275Z,4.00
2018-02-11T11:54:29.282Z,4.70
2018-02-11T11:56:22.907Z,8.40
2018-02-11T11:57:22.905Z,16.70
2018-02-11T11:59:16.520Z,63.90
2018-02-11T12:00:16.530Z,75.80
2018-02-11T12:02:10.165Z,55.80
2018-02-11T12:03:10.160Z,46.00
2018-02-11T12:05:03.776Z,40.60
2018-02-11T12:06:03.785Z,37.70
2018-02-11T12:07:57.427Z,55.20
2018-02-11T12:08:57.409Z,54.60
2018-02-11T12:10:51.043Z,55.20
2018-02-11T12:11:51.052Z,52.10
2018-02-11T12:13:44.663Z,64.00
2018-02-11T12:14:44.674Z,61.30
2018-02-11T12:16:38.308Z,64.70
2018-02-11T12:17:38.306Z,65.30
2018-02-11T12:19:31.918Z,68.00
2018-02-11T12:20:31.927Z,70.00
2018-02-11T12:22:25.562Z,72.90
2018-02-11T12:23:25.560Z,68.80
2018-02-11T12:25:19.176Z,75.20
2018-02-11T12:26:19.182Z,72.80
2018-02-11T12:28:12.817Z,68.00
2018-02-11T12:29:12.815Z,68.80
2018-02-11T12:31:06.429Z,76.40
2018-02-11T12:32:06.441Z,73.50
2018-02-11T12:34:00.052Z,69.70
2018-02-11T12:35:00.063Z,73.00
2018-02-11T12:36:53.674Z,75.70
2018-02-11T12:37:53.684Z,72.30
2018-02-11T12:39:47.307Z,76.90
2018-02-11T12:40:47.315Z,68.90
2018-02-11T12:42:40.981Z,98.60
2018-02-11T12:43:40.952Z,82.20
2018-02-11T12:45:34.567Z,106.70
2018-02-11T12:46:34.577Z,108.50
2018-02-11T12:48:28.205Z,103.60
2018-02-11T12:49:28.198Z,120.10
2018-02-11T12:51:21.810Z,106.50
2018-02-11T12:52:21.823Z,109.70
2018-02-11T12:54:15.456Z,96.20
2018-02-11T12:55:15.456Z,100.60
2018-02-11T12:57:09.072Z,98.40
2018-02-11T12:58:09.084Z,107.30
2018-02-11T13:00:02.708Z,96.50
2018-02-11T13:01:02.709Z,92.90
2018-02-11T13:02:56.320Z,97.50
2018-02-11T13:03:56.329Z,103.50
2018-02-11T13:05:49.942Z,94.40
2018-02-11T13:06:49.951Z,88.30
2018-02-11T13:08:43.586Z,96.30
2018-02-11T13:09:43.583Z,89.10
2018-02-11T13:11:37.198Z,87.10
2018-02-11T13:12:37.206Z,90.30
2018-02-11T13:14:30.842Z,84.90
2018-02-11T13:15:30.840Z,79.10
2018-02-11T13:17:24.466Z,77.90
2018-02-11T13:18:24.474Z,90.30
2018-02-11T13:20:18.110Z,82.80
2018-02-11T13:21:18.108Z,82.40
2018-02-11T13:23:11.737Z,82.40
2018-02-11T13:24:11.749Z,82.00
2018-02-11T13:26:05.370Z,76.50
2018-02-11T13:27:05.366Z,73.80
2018-02-11T13:28:58.996Z,79.10
2018-02-11T13:29:58.999Z,78.10
2018-02-11T13:31:52.633Z,75.90
2018-02-11T13:32:52.649Z,75.70
2018-02-11T13:34:46.278Z,67.90
2018-02-11T13:35:46.306Z,72.70
2018-02-11T13:37:39.869Z,72.10
2018-02-11T13:38:39.879Z,75.90
2018-02-11T13:40:33.515Z,68.30
2018-02-11T13:41:33.511Z,71.70
2018-02-11T13:43:27.136Z,67.50
2018-02-11T13:44:27.145Z,64.90
2018-02-11T13:46:20.779Z,64.40
2018-02-11T13:47:20.783Z,62.20
2018-02-11T13:49:14.392Z,66.90
2018-02-11T13:50:14.401Z,62.90
2018-02-11T13:52:08.024Z,61.80
2018-02-11T13:53:08.090Z,61.10
2018-02-11T13:55:01.648Z,60.00
2018-02-11T13:56:01.663Z,60.20
2018-02-11T13:57:55.272Z,56.60
2018-02-11T13:58:55.282Z,60.80
2018-02-11T14:00:48.922Z,57.90
2018-02-11T14:01:48.905Z,54.90
2018-02-11T14:03:42.521Z,60.60
2018-02-11T14:04:42.529Z,56.20
2018-02-11T14:06:36.162Z,53.30
2018-02-11T14:07:36.162Z,53.30
2018-02-11T14:09:29.786Z,55.30
2018-02-11T14:10:29.794Z,55.80
2018-02-11T14:12:23.471Z,53.00
2018-02-11T14:13:23.468Z,51.70
2018-02-11T14:15:17.084Z,52.60
2018-02-11T14:16:17.092Z,54.10
2018-02-11T14:18:10.715Z,49.30
2018-02-11T14:19:10.725Z,53.00
2018-02-11T14:21:04.354Z,55.70
2018-02-11T14:22:04.357Z,54.30
2018-02-11T14:23:57.978Z,55.40
2018-02-11T14:24:58.023Z,51.10
2018-02-11T14:26:51.613Z,48.30
2018-02-11T14:27:51.610Z,48.40
2018-02-11T14:29:45.222Z,52.00
2018-02-11T14:30:45.228Z,50.80
2018-02-11T14:32:38.871Z,51.20
2018-02-11T14:33:38.850Z,48.20
2018-02-11T14:35:32.474Z,46.10
2018-02-11T14:36:32.481Z,50.80
2018-02-11T14:38:26.095Z,46.60
2018-02-11T14:39:26.101Z,43.90
2018-02-11T14:41:19.716Z,43.50
2018-02-11T14:42:19.723Z,45.10
2018-02-11T14:44:13.346Z,39.90
2018-02-11T14:45:13.354Z,41.60
2018-02-11T14:47:06.980Z,43.00
2018-02-11T14:48:06.977Z,43.40
2018-02-11T14:50:00.602Z,44.40
2018-02-11T14:51:00.610Z,45.90
2018-02-11T14:52:54.244Z,42.40
2018-02-11T14:53:54.243Z,39.70
2018-02-11T14:55:47.868Z,40.90
2018-02-11T14:56:47.878Z,42.30
2018-02-11T14:58:41.510Z,40.30
2018-02-11T14:59:41.508Z,39.10
2018-02-11T15:01:35.121Z,41.50
2018-02-11T15:02:35.129Z,35.80
2018-02-11T15:04:28.744Z,41.20
2018-02-11T15:05:28.749Z,38.40
2018-02-11T15:07:22.374Z,39.50
2018-02-11T15:08:22.372Z,37.90
2018-02-11T15:10:15.996Z,38.10
2018-02-11T15:11:16.006Z,39.60
2018-02-11T15:13:09.635Z,37.10
2018-02-11T15:14:09.629Z,37.90
2018-02-11T15:16:03.244Z,33.60
2018-02-11T15:17:03.252Z,37.00
2018-02-11T15:18:56.896Z,36.10
2018-02-11T15:19:56.896Z,35.50
2018-02-11T15:21:50.529Z,33.70
2018-02-11T15:22:50.538Z,36.20
2018-02-11T15:24:44.179Z,34.30
2018-02-11T15:25:44.171Z,35.70
2018-02-11T15:27:37.802Z,36.60
2018-02-11T15:28:37.797Z,33.80
2018-02-11T15:30:31.410Z,34.00
2018-02-11T15:31:31.418Z,33.60
2018-02-11T15:33:25.172Z,34.60
2018-02-11T15:34:25.058Z,32.60
2018-02-11T15:36:18.682Z,32.10
2018-02-11T15:37:18.689Z,32.30
2018-02-11T15:39:12.323Z,30.60
2018-02-11T15:40:12.340Z,27.90
2018-02-11T15:42:05.941Z,31.40
2018-02-11T15:43:05.952Z,30.90
2018-02-11T15:44:59.575Z,31.50
2018-02-11T15:45:59.582Z,30.40
2018-02-11T15:47:53.209Z,29.00
2018-02-11T15:48:53.206Z,29.00
2018-02-11T15:50:46.822Z,28.10
2018-02-11T15:51:46.830Z,28.60
2018-02-11T15:53:40.454Z,26.20
2018-02-11T15:54:40.454Z,29.00
2018-02-11T15:56:34.077Z,28.10
2018-02-11T15:57:34.084Z,27.90
2018-02-11T15:59:27.733Z,28.20
2018-02-11T16:00:27.717Z,24.20
2018-02-11T16:02:21.406Z,27.50
2018-02-11T16:03:21.352Z,27.90
2018-02-11T16:05:14.988Z,24.90
2018-02-11T16:06:14.996Z,26.90
2018-02-11T16:08:08.653Z,23.90
2018-02-11T16:09:08.627Z,26.00
2018-02-11T16:11:02.242Z,23.00
2018-02-11T16:12:02.251Z,23.50
2018-02-11T16:13:55.875Z,23.10
2018-02-11T16:14:55.879Z,24.20
2018-02-11T16:16:49.489Z,23.90
2018-02-11T16:17:49.497Z,23.50
2018-02-11T16:19:43.132Z,20.80
2018-02-11T16:20:43.131Z,22.50
2018-02-11T16:22:36.746Z,22.90
2018-02-11T16:23:36.758Z,23.10
2018-02-11T16:25:30.379Z,22.70
2018-02-11T16:26:30.388Z,20.20
2018-02-11T16:28:24.013Z,25.60
2018-02-11T16:29:24.059Z,25.10
2018-02-11T16:31:17.626Z,20.00
2018-02-11T16:32:17.637Z,21.40
2018-02-11T16:34:11.272Z,22.00
2018-02-11T16:35:11.270Z,20.20
2018-02-11T16:37:04.891Z,20.60
2018-02-11T16:38:04.896Z,21.30
2018-02-11T16:39:58.519Z,23.50
2018-02-11T16:40:58.517Z,22.40
2018-02-11T16:42:52.142Z,21.60
2018-02-11T16:43:52.182Z,19.70
2018-02-11T16:45:45.768Z,19.30
2018-02-11T16:46:45.773Z,22.30
2018-02-11T16:48:39.449Z,19.60
2018-02-11T16:49:39.397Z,20.20
2018-02-11T16:51:33.011Z,20.10
2018-02-11T16:52:33.018Z,20.30
2018-02-11T16:54:26.630Z,21.00
2018-02-11T16:55:26.640Z,21.10
2018-02-11T16:57:20.256Z,19.20
2018-02-11T16:58:20.262Z,18.90
2018-02-11T17:00:13.888Z,18.40
2018-02-11T17:01:13.895Z,18.20
2018-02-11T17:03:07.519Z,20.90
2018-02-11T17:04:07.519Z,18.10
2018-02-11T17:06:01.144Z,18.70
2018-02-11T17:07:01.153Z,21.20
2018-02-11T17:08:54.778Z,18.90
2018-02-11T17:09:54.785Z,18.90
2018-02-11T17:11:48.401Z,19.00
2018-02-11T17:12:48.409Z,22.10
2018-02-11T17:14:42.024Z,20.00
2018-02-11T17:15:42.033Z,14.70
2018-02-11T17:17:35.694Z,16.70
2018-02-11T17:18:35.657Z,18.40
2018-02-11T17:20:29.275Z,18.30
2018-02-11T17:21:29.283Z,18.50
2018-02-11T17:23:22.895Z,16.10
2018-02-11T17:24:22.904Z,20.10
2018-02-11T17:26:16.529Z,18.80
2018-02-11T17:27:16.535Z,19.60
2018-02-11T17:29:10.163Z,20.20
2018-02-11T17:30:10.171Z,19.00
2018-02-11T17:32:03.796Z,18.40
2018-02-11T17:33:03.804Z,19.70
2018-02-11T17:34:57.420Z,18.00
2018-02-11T17:35:57.427Z,19.90
2018-02-11T17:37:51.043Z,18.60
2018-02-11T17:38:51.052Z,17.80
2018-02-11T17:40:44.680Z,17.20
2018-02-11T17:41:44.683Z,18.70
2018-02-11T17:43:38.310Z,18.10
2018-02-11T17:44:38.318Z,17.70
2018-02-11T17:46:31.934Z,18.70
2018-02-11T17:47:31.944Z,16.20
2018-02-11T17:49:25.578Z,16.80
2018-02-11T17:50:25.587Z,19.70
2018-02-11T17:52:19.202Z,16.50
2018-02-11T17:53:19.210Z,15.80
2018-02-11T17:55:12.888Z,14.90
2018-02-11T17:56:12.862Z,16.80
2018-02-11T17:58:06.478Z,15.20
2018-02-11T17:59:06.485Z,19.10
2018-02-11T18:01:00.107Z,15.40
2018-02-11T18:02:00.111Z,15.50
2018-02-11T18:03:53.731Z,17.10
2018-02-11T18:04:53.743Z,14.80
2018-02-11T18:06:47.352Z,17.00
2018-02-11T18:07:47.367Z,16.70
2018-02-11T18:09:40.981Z,16.20
2018-02-11T18:10:40.986Z,17.80
2018-02-11T18:12:35.602Z,16.10
2018-02-11T18:13:35.609Z,16.10
2018-02-11T18:15:29.244Z,15.50
2018-02-11T18:16:29.253Z,17.70
2018-02-11T18:18:22.877Z,16.60
2018-02-11T18:19:22.877Z,14.70
2018-02-11T18:21:16.493Z,14.90
2018-02-11T18:22:16.501Z,16.90
2018-02-11T18:24:10.116Z,13.90
2018-02-11T18:25:10.125Z,14.00
2018-02-11T18:27:03.741Z,16.50
2018-02-11T18:28:03.754Z,14.40
2018-02-11T18:29:57.364Z,19.70
2018-02-11T18:30:57.374Z,24.90
2018-02-11T18:32:50.990Z,24.10
2018-02-11T18:33:50.998Z,36.70
2018-02-11T18:35:44.614Z,47.20
2018-02-11T18:36:44.624Z,55.20
2018-02-11T18:38:38.249Z,51.40
2018-02-11T18:39:38.248Z,46.60
2018-02-11T18:41:31.874Z,43.60
2018-02-11T18:42:31.882Z,46.80
2018-02-11T18:44:25.497Z,40.50
2018-02-11T18:45:25.505Z,36.00
2018-02-11T18:47:19.123Z,43.00
2018-02-11T18:48:19.131Z,41.90
2018-02-11T18:50:12.747Z,45.00
2018-02-11T18:51:12.757Z,45.40
2018-02-11T18:53:06.380Z,40.10
2018-02-11T18:54:06.389Z,44.20
2018-02-11T18:56:00.020Z,45.90
2018-02-11T18:57:00.014Z,44.90
2018-02-11T18:58:53.627Z,49.30
2018-02-11T18:59:53.645Z,44.00
2018-02-11T19:01:47.262Z,41.60